チューリッヒ の空港の天気 - METARとTAF

チューリヒ国際空港 ( LSZH / ZRH ) - スイス チューリッヒ
飛行場実況気象(Metar)
観測時間08/25 20:50 CEST (08/25 18:50 UTC)
風向・風速北北西 1m/s
視程10km以上
天気現象
なし
気温19℃
湿度78%
気圧1020hPa
METARLSZH 251850Z 33001KT CAVOK 19/15 Q1020 NOSIG
過去の天気等 Google飛行場航空写真 Wunderground天気予報

過去48時間のMETAR

飛行場予報(TAF)
発表時間: 8/25 19:25 CEST (8/25 17:25 UTC)
予報対象時間: 25日20時 CEST ~ 27日2時 CEST
風向・風速不定 2m/s
視程10km以上
なし
26日2時 CEST から 確率 40% で
視程3000m
天気現象地霧
なし
26日4時 CEST から 確率 30% で
視程1500m
天気現象散在した霧
26日14時 CEST から 確率 40% で
風向・風速北東 3m/s
TAF LSZH 251725Z 2518/2624 VRB03KT CAVOK TX29/2615Z TN12/2605Z
PROB40 2600/2608 3000 MIFG NSC
PROB30 2602/2607 1500 BCFG
PROB40 2612/2618 05005KT